Time;durP1;ratioP1;P1;durP2;ratioP2;P2;SDS_P1;SDS_P2;PMS_P1;PMS_P2;Temp;Humidity;BMP_temperature;BMP_pressure;BME280_temperature;BME280_humidity;BME280_pressure;Samples;Min_cycle;Max_cycle;Signal;HPM_P1;HPM_P2
2023/11/21 00:00:15;;;;;;;16.65;10.98;;;;;;;5.03;100.00;91877.78;4939245;29;20047;-77
2023/11/21 00:02:41;;;;;;;16.75;11.25;;;;;;;5.01;100.00;91866.88;4956750;29;20066;-79
2023/11/21 00:05:13;;;;;;;14.65;10.75;;;;;;;5.05;100.00;91867.16;4956218;29;20402;-77
2023/11/21 00:07:39;;;;;;;;;;;;;;;5.06;100.00;91866.84;4956474;29;20039;-78
2023/11/21 00:10:06;;;;;;;14.23;9.88;;;;;;;5.05;100.00;91865.31;4955701;29;20223;-78
2023/11/21 00:12:33;;;;;;;16.00;10.55;;;;;;;5.03;100.00;91861.44;4955611;29;20039;-78
2023/11/21 00:14:58;;;;;;;13.27;10.65;;;;;;;4.99;100.00;91861.97;4955875;29;20430;-78
2023/11/21 00:17:24;;;;;;;14.82;11.15;;;;;;;5.03;100.00;91859.63;4955608;29;20036;-78
2023/11/21 00:19:52;;;;;;;14.65;10.20;;;;;;;5.05;100.00;91857.53;4955525;29;20094;-78
2023/11/21 00:22:18;;;;;;;12.57;10.25;;;;;;;5.08;100.00;91858.81;4956149;29;20039;-78
2023/11/21 00:24:44;;;;;;;13.50;10.68;;;;;;;5.07;100.00;91860.66;4955792;29;20038;-78
2023/11/21 00:27:10;;;;;;;13.98;10.27;;;;;;;5.08;100.00;91859.59;4938574;29;20070;-77
2023/11/21 00:29:35;;;;;;;13.43;10.40;;;;;;;5.05;100.00;91849.75;4955957;29;20050;-78
2023/11/21 00:32:01;;;;;;;15.65;10.80;;;;;;;5.08;100.00;91849.22;4955695;29;20090;-77
2023/11/21 00:34:27;;;;;;;13.95;10.10;;;;;;;5.07;100.00;91850.25;4938570;29;20126;-77
2023/11/21 00:36:53;;;;;;;12.45;9.93;;;;;;;5.08;100.00;91848.44;4955324;29;20499;-78
2023/11/21 00:39:20;;;;;;;13.73;10.00;;;;;;;5.06;100.00;91846.09;4955627;29;20110;-78
2023/11/21 00:41:45;;;;;;;13.57;10.77;;;;;;;5.07;100.00;91847.66;4955861;29;20063;-78
2023/11/21 00:44:11;;;;;;;15.70;11.10;;;;;;;5.09;100.00;91850.78;4938513;29;20479;-79
2023/11/21 00:46:37;;;;;;;15.82;12.15;;;;;;;5.07;100.00;91839.88;4955946;29;20049;-78
2023/11/21 00:49:04;;;;;;;17.95;11.82;;;;;;;5.11;100.00;91840.91;4922186;29;20439;-77
2023/11/21 00:51:30;;;;;;;13.98;11.75;;;;;;;5.12;100.00;91839.84;4955451;29;20403;-78
2023/11/21 00:53:55;;;;;;;14.40;11.38;;;;;;;5.13;100.00;91831.00;4937762;29;20031;-78
2023/11/21 00:56:22;;;;;;;13.88;11.68;;;;;;;5.15;100.00;91834.13;4955185;29;20130;-78
2023/11/21 00:58:49;;;;;;;13.93;11.45;;;;;;;5.15;100.00;91828.94;4955111;28;20090;-78
2023/11/21 01:01:19;;;;;;;13.95;10.80;;;;;;;5.15;100.00;91830.75;4937896;29;20070;-78
2023/11/21 01:03:48;;;;;;;14.90;11.05;;;;;;;5.16;100.00;91835.69;4955499;29;20043;-78
2023/11/21 01:06:14;;;;;;;15.30;11.35;;;;;;;5.17;100.00;91829.44;4956423;29;20098;-78
2023/11/21 01:08:41;;;;;;;14.88;11.57;;;;;;;5.16;100.00;91835.69;4955417;28;20118;-77
2023/11/21 01:11:11;;;;;;;14.10;10.18;;;;;;;5.15;100.00;91822.97;4938075;29;20043;-77
2023/11/21 01:13:39;;;;;;;14.85;10.77;;;;;;;5.06;100.00;91817.56;4954780;29;20047;-78
2023/11/21 01:16:06;;;;;;;17.27;11.05;;;;;;;5.05;100.00;91823.03;4937574;29;20049;-76
2023/11/21 01:18:32;;;;;;;15.70;10.48;;;;;;;5.05;100.00;91826.41;4937851;29;20067;-78
2023/11/21 01:20:57;;;;;;;15.32;10.48;;;;;;;4.97;100.00;91822.53;4937175;29;20039;-78
2023/11/21 01:23:23;;;;;;;16.77;11.05;;;;;;;4.93;100.00;91816.34;4937492;29;20204;-78
2023/11/21 01:25:49;;;;;;;16.20;11.25;;;;;;;4.89;100.00;91824.94;4955115;29;20031;-78
2023/11/21 01:28:14;;;;;;;14.07;10.70;;;;;;;4.85;100.00;91823.91;4954903;28;20471;-78
2023/11/21 01:30:40;;;;;;;14.95;11.00;;;;;;;4.84;100.00;91822.34;4953998;29;20110;-78
2023/11/21 01:33:06;;;;;;;14.45;10.55;;;;;;;4.85;100.00;91821.31;4954329;29;20144;-78
2023/11/21 01:35:31;;;;;;;14.38;10.75;;;;;;;4.86;100.00;91810.66;4954562;29;20055;-78
2023/11/21 01:37:57;;;;;;;15.90;10.45;;;;;;;4.86;100.00;91799.53;4953818;28;20031;-78
2023/11/21 01:40:24;;;;;;;15.35;11.15;;;;;;;4.86;100.00;91804.72;4936934;29;20043;-78
2023/11/21 01:42:50;;;;;;;14.88;10.50;;;;;;;4.91;100.00;91786.53;4936976;29;20043;-78
2023/11/21 01:45:15;;;;;;;15.45;10.57;;;;;;;4.90;100.00;91793.53;4937571;29;20328;-78
2023/11/21 01:47:44;;;;;;;14.30;10.65;;;;;;;4.89;100.00;91792.00;4954413;28;20515;-78
2023/11/21 01:50:14;;;;;;;15.15;10.35;;;;;;;4.92;100.00;91793.28;4955312;29;20063;-77
2023/11/21 01:52:40;;;;;;;15.40;10.43;;;;;;;4.93;100.00;91794.81;4937584;29;20043;-78
2023/11/21 01:55:08;;;;;;;14.18;10.38;;;;;;;4.89;100.00;91786.03;4937286;29;20031;-78
2023/11/21 01:57:35;;;;;;;16.70;11.50;;;;;;;4.87;100.00;91788.13;4953636;28;20363;-78
2023/11/21 02:00:15;;;;;;;15.20;10.48;;;;;;;4.81;100.00;91782.16;4936557;29;20499;-77
2023/11/21 02:02:47;;;;;;;15.73;11.45;;;;;;;4.74;100.00;91774.69;4953668;29;20101;-78
2023/11/21 02:05:19;;;;;;;;;;;;;;;4.75;100.00;91783.22;4954416;29;20094;-78
2023/11/21 02:07:49;;;;;;;13.10;10.15;;;;;;;4.71;100.00;91782.25;4937032;29;19959;-77
2023/11/21 02:10:15;;;;;;;13.05;10.27;;;;;;;4.71;100.00;91790.03;4935884;29;20407;-78
2023/11/21 02:12:42;;;;;;;14.25;9.98;;;;;;;4.72;100.00;91794.91;4936329;29;20035;-78
2023/11/21 02:15:14;;;;;;;15.52;9.82;;;;;;;4.68;100.00;91793.91;4936466;29;20277;-78
2023/11/21 02:17:43;;;;;;;15.48;10.75;;;;;;;4.68;100.00;91793.91;4936382;29;20156;-78
2023/11/21 02:20:15;;;;;;;15.10;10.77;;;;;;;4.68;100.00;91799.06;4935896;29;20484;-78
2023/11/21 02:22:45;;;;;;;15.27;10.75;;;;;;;4.68;100.00;91787.94;4935730;29;20121;-77
2023/11/21 02:25:11;;;;;;;14.40;10.50;;;;;;;4.70;100.00;91785.84;4936045;29;20038;-78
2023/11/21 02:27:37;;;;;;;15.38;10.38;;;;;;;4.65;100.00;91773.69;4936185;29;20037;-78
2023/11/21 02:30:04;;;;;;;15.35;9.65;;;;;;;4.72;100.00;91779.34;4936097;29;20048;-78
2023/11/21 02:32:31;;;;;;;13.88;9.77;;;;;;;4.67;100.00;91766.44;4953517;29;20054;-78
2023/11/21 02:35:00;;;;;;;14.10;9.50;;;;;;;4.73;100.00;91767.19;4935991;29;20063;-78
2023/11/21 02:37:26;;;;;;;13.52;9.93;;;;;;;4.73;100.00;91769.78;4953377;28;20035;-78
2023/11/21 02:39:52;;;;;;;12.80;9.38;;;;;;;4.76;100.00;91770.00;4935890;29;20503;-78
2023/11/21 02:42:18;;;;;;;14.35;9.75;;;;;;;4.78;100.00;91770.53;4953329;29;20063;-78
2023/11/21 02:44:44;;;;;;;14.25;9.70;;;;;;;4.82;100.00;91764.78;4953352;29;20566;-78
2023/11/21 02:47:10;;;;;;;15.25;10.55;;;;;;;4.80;100.00;91765.84;4953774;28;20081;-78
2023/11/21 02:49:35;;;;;;;12.88;9.60;;;;;;;4.82;100.00;91759.59;4936287;29;20043;-78
2023/11/21 02:52:02;;;;;;;17.38;9.75;;;;;;;4.82;100.00;91744.84;4953285;29;20027;-76
2023/11/21 02:54:27;;;;;;;13.57;9.63;;;;;;;4.82;100.00;91747.44;4953715;29;20098;-77
2023/11/21 02:56:53;;;;;;;16.10;10.73;;;;;;;4.84;100.00;91754.94;4919962;28;20039;-78
2023/11/21 02:59:19;;;;;;;15.85;10.65;;;;;;;4.84;100.00;91758.31;4936281;29;20062;-77
2023/11/21 03:01:46;;;;;;;15.70;10.55;;;;;;;4.85;100.00;91756.50;4935610;29;20411;-78
2023/11/21 03:04:17;;;;;;;16.77;10.38;;;;;;;4.86;100.00;91761.38;4935214;29;20050;-77
2023/11/21 03:06:45;;;;;;;14.30;10.60;;;;;;;4.86;100.00;91747.66;4951983;29;20039;-79
2023/11/21 03:09:14;;;;;;;14.10;10.32;;;;;;;4.84;100.00;91744.56;4936207;29;20116;-78
2023/11/21 03:11:39;;;;;;;13.73;10.23;;;;;;;4.83;100.00;91743.78;4936037;29;20039;-79
2023/11/21 03:14:05;;;;;;;13.60;9.95;;;;;;;4.85;100.00;91746.88;4954080;29;20041;-78
2023/11/21 03:16:32;;;;;;;14.20;9.48;;;;;;;4.78;100.00;91757.56;4937249;29;20035;-78
2023/11/21 03:18:58;;;;;;;14.13;9.98;;;;;;;4.76;100.00;91754.44;4936240;29;20515;-79
2023/11/21 03:21:26;;;;;;;12.52;9.48;;;;;;;4.75;100.00;91752.91;4953438;28;20051;-77
2023/11/21 03:23:52;;;;;;;14.88;9.95;;;;;;;4.72;100.00;91752.66;4957704;29;20027;-79
2023/11/21 03:26:18;;;;;;;13.75;9.95;;;;;;;4.70;100.00;91755.50;4940639;29;20035;-78
2023/11/21 03:28:43;;;;;;;15.45;10.07;;;;;;;4.69;100.00;91750.63;4957502;29;20463;-77
2023/11/21 03:31:09;;;;;;;14.07;9.82;;;;;;;4.65;100.00;91752.94;4940253;29;20055;-77
2023/11/21 03:33:35;;;;;;;13.57;10.18;;;;;;;4.63;100.00;91744.66;4956257;29;20086;-77
2023/11/21 03:36:01;;;;;;;14.10;9.95;;;;;;;4.61;100.00;91751.94;4939130;29;20085;-78
2023/11/21 03:38:27;;;;;;;12.98;9.90;;;;;;;4.58;100.00;91752.47;4940803;29;20047;-78
2023/11/21 03:40:53;;;;;;;14.35;10.35;;;;;;;4.55;100.00;91753.78;4939962;29;20044;-78
2023/11/21 03:43:18;;;;;;;15.85;9.88;;;;;;;4.52;100.00;91748.34;4956678;29;20050;-78
2023/11/21 03:45:44;;;;;;;14.40;9.65;;;;;;;4.51;100.00;91746.81;4956734;29;20159;-79
2023/11/21 03:48:12;;;;;;;12.52;9.50;;;;;;;4.41;100.00;91739.06;4939636;29;20031;-78
2023/11/21 03:50:38;;;;;;;14.68;10.15;;;;;;;4.46;100.00;91747.63;4956987;29;20126;-78
2023/11/21 03:53:05;;;;;;;16.05;10.73;;;;;;;4.43;100.00;91755.13;4939246;29;20515;-78
2023/11/21 03:55:31;;;;;;;13.90;10.32;;;;;;;4.40;100.00;91756.44;4939479;29;20049;-78
2023/11/21 03:57:58;;;;;;;16.00;9.75;;;;;;;4.36;100.00;91756.19;4957011;29;20127;-79
2023/11/21 04:00:24;;;;;;;15.00;9.70;;;;;;;4.33;100.00;91751.53;4957168;29;20043;-78
2023/11/21 04:02:51;;;;;;;12.90;9.88;;;;;;;4.29;100.00;91745.34;4956880;29;20034;-79
2023/11/21 04:05:17;;;;;;;14.35;9.73;;;;;;;4.26;100.00;91753.66;4956588;29;20042;-79
2023/11/21 04:07:43;;;;;;;13.30;9.18;;;;;;;4.25;100.00;91753.91;4939783;29;20039;-79
2023/11/21 04:10:09;;;;;;;14.70;9.77;;;;;;;4.22;100.00;91749.25;4956013;29;20047;-78
2023/11/21 04:12:35;;;;;;;17.17;10.43;;;;;;;4.22;100.00;91757.03;4956291;29;20077;-79
2023/11/21 04:15:01;;;;;;;13.70;9.68;;;;;;;4.20;100.00;91749.53;4956382;29;20039;-79
2023/11/21 04:17:27;;;;;;;16.48;10.25;;;;;;;4.21;100.00;91742.50;4956623;29;20028;-78
2023/11/21 04:19:52;;;;;;;13.50;9.68;;;;;;;4.15;100.00;91737.34;4956567;29;20431;-79
2023/11/21 04:22:19;;;;;;;14.10;9.93;;;;;;;4.18;100.00;91734.22;4956621;29;20045;-77
2023/11/21 04:24:44;;;;;;;15.00;9.80;;;;;;;4.14;100.00;91738.41;4956147;29;20500;-78
2023/11/21 04:27:10;;;;;;;13.65;9.70;;;;;;;4.09;100.00;91735.06;4955988;29;20111;-78
2023/11/21 04:29:36;;;;;;;12.48;9.32;;;;;;;4.07;100.00;91732.72;4955679;29;20075;-79
2023/11/21 04:32:02;;;;;;;15.02;9.98;;;;;;;4.00;100.00;91737.41;4938555;29;20054;-78
2023/11/21 04:34:30;;;;;;;13.60;10.15;;;;;;;3.93;100.00;91737.69;4955835;28;20039;-78
2023/11/21 04:36:57;;;;;;;14.07;9.68;;;;;;;3.86;100.00;91741.59;4938944;29;20570;-77
2023/11/21 04:39:23;;;;;;;13.35;9.82;;;;;;;3.81;100.00;91733.84;4956276;29;20488;-78
2023/11/21 04:41:49;;;;;;;15.05;9.80;;;;;;;3.73;100.00;91741.09;4956247;29;20035;-79
2023/11/21 04:44:16;;;;;;;16.75;10.23;;;;;;;3.68;100.00;91741.09;4938452;29;20039;-79
2023/11/21 04:46:41;;;;;;;16.08;10.13;;;;;;;3.64;100.00;91736.72;4938523;29;20035;-78
2023/11/21 04:49:07;;;;;;;14.60;9.73;;;;;;;3.58;100.00;91728.19;4955171;29;20036;-77
2023/11/21 04:51:33;;;;;;;14.98;9.82;;;;;;;3.49;100.00;91727.94;4954829;29;20037;-78
2023/11/21 04:53:58;;;;;;;18.42;9.10;;;;;;;3.42;100.00;91735.16;4954323;29;20073;-78
2023/11/21 04:56:24;;;;;;;15.18;9.77;;;;;;;3.42;100.00;91735.16;4955012;29;20042;-77
2023/11/21 04:58:50;;;;;;;14.68;9.55;;;;;;;3.39;100.00;91743.47;4955306;29;20130;-78
2023/11/21 05:01:16;;;;;;;11.60;8.18;;;;;;;3.39;100.00;91743.47;4921878;29;20042;-78
2023/11/21 05:03:41;;;;;;;11.07;8.52;;;;;;;3.34;100.00;91748.66;4955567;29;20039;-77
2023/11/21 05:06:10;;;;;;;13.43;9.02;;;;;;;3.28;100.00;91747.09;4937769;29;20067;-78
2023/11/21 05:08:37;;;;;;;12.85;8.98;;;;;;;3.25;100.00;91745.81;4955251;29;20122;-78
2023/11/21 05:11:03;;;;;;;11.23;8.35;;;;;;;3.23;100.00;91736.75;4954957;29;20043;-78
2023/11/21 05:13:28;;;;;;;18.08;9.30;;;;;;;3.22;100.00;91738.56;4954665;29;20039;-78
2023/11/21 05:15:57;;;;;;;13.35;9.27;;;;;;;3.27;100.00;91742.97;4955145;29;20035;-78
2023/11/21 05:18:23;;;;;;;12.35;8.63;;;;;;;3.26;100.00;91738.81;4936260;29;20142;-77
2023/11/21 05:20:48;;;;;;;11.95;8.32;;;;;;;3.19;100.00;91730.53;4952032;29;20110;-77
2023/11/21 05:23:14;;;;;;;14.52;8.85;;;;;;;3.22;100.00;91730.81;4921003;29;20043;-77
2023/11/21 05:25:41;;;;;;;13.40;8.95;;;;;;;3.22;100.00;91727.44;4955264;29;20110;-76
2023/11/21 05:28:07;;;;;;;12.35;8.63;;;;;;;3.21;100.00;91731.06;4953220;29;20451;-76
2023/11/21 05:30:33;;;;;;;10.50;7.78;;;;;;;3.07;100.00;91723.81;4932261;29;20048;-77
2023/11/21 05:32:59;;;;;;;11.85;8.25;;;;;;;3.09;100.00;91731.31;4934149;29;20096;-76
2023/11/21 05:35:25;;;;;;;11.55;7.57;;;;;;;2.97;100.00;91736.72;4935353;29;20031;-77
2023/11/21 05:37:50;;;;;;;11.57;7.72;;;;;;;2.90;100.00;91738.78;4933538;29;20535;-76
2023/11/21 05:40:16;;;;;;;12.20;8.35;;;;;;;2.89;100.00;91745.00;4934153;29;20042;-77
2023/11/21 05:42:41;;;;;;;16.92;9.30;;;;;;;2.89;100.00;91742.41;4933841;29;20511;-77
2023/11/21 05:45:11;;;;;;;14.07;8.75;;;;;;;2.96;100.00;91747.34;4933088;29;20059;-77
2023/11/21 05:47:46;;;;;;;13.02;8.55;;;;;;;2.96;100.00;91740.34;4936674;29;20071;-78
2023/11/21 05:50:17;;;;;;;14.40;8.45;;;;;;;2.93;100.00;91746.06;4934662;29;20047;-77
2023/11/21 05:52:45;;;;;;;13.02;8.68;;;;;;;2.89;100.00;91745.78;4934114;29;20035;-77
2023/11/21 05:55:11;;;;;;;11.63;8.52;;;;;;;2.87;100.00;91747.06;4935160;29;20460;-79
2023/11/21 05:57:38;;;;;;;12.52;8.43;;;;;;;2.84;100.00;91752.75;4932205;29;20032;-78
2023/11/21 06:00:27;;;;;;;12.30;8.40;;;;;;;2.78;100.00;91753.78;4933880;29;20480;-78
2023/11/21 06:02:54;;;;;;;12.73;8.38;;;;;;;2.76;100.00;91742.91;4935240;29;20054;-77
2023/11/21 06:05:23;;;;;;;12.75;8.90;;;;;;;2.73;100.00;91751.97;4936010;29;20028;-78
2023/11/21 06:07:49;;;;;;;12.48;8.38;;;;;;;2.69;100.00;91749.09;4937596;29;20079;-77
2023/11/21 06:10:17;;;;;;;13.25;8.20;;;;;;;2.68;100.00;91750.16;4936630;29;20118;-77
2023/11/21 06:12:44;;;;;;;12.48;8.90;;;;;;;2.67;100.00;91751.16;4936218;29;20047;-79
2023/11/21 06:15:13;;;;;;;13.30;8.73;;;;;;;2.74;100.00;91760.47;4935929;29;20038;-80
2023/11/21 06:17:39;;;;;;;13.48;8.70;;;;;;;2.73;100.00;91756.34;4934729;29;20492;-79
2023/11/21 06:20:13;;;;;;;12.32;9.00;;;;;;;2.73;100.00;91761.53;4917680;29;20424;-78
2023/11/21 06:22:41;;;;;;;12.88;9.15;;;;;;;2.75;100.00;91765.41;4937635;29;20372;-76
2023/11/21 06:25:08;;;;;;;15.05;9.90;;;;;;;2.78;100.00;91761.53;4933901;29;20035;-77
2023/11/21 06:27:36;;;;;;;13.05;9.68;;;;;;;2.81;100.00;91759.19;4934333;29;20126;-77
2023/11/21 06:30:02;;;;;;;13.13;9.50;;;;;;;2.86;100.00;91771.34;4940399;29;20095;-77
2023/11/21 06:32:29;;;;;;;12.98;9.23;;;;;;;2.87;100.00;91763.34;4922952;29;20043;-78
2023/11/21 06:35:01;;;;;;;13.30;9.95;;;;;;;2.89;100.00;91771.63;4923851;29;20058;-77
2023/11/21 06:37:28;;;;;;;12.38;8.80;;;;;;;2.93;100.00;91766.72;4954198;29;20031;-78
2023/11/21 06:39:56;;;;;;;12.40;9.10;;;;;;;2.93;100.00;91753.81;4955407;29;20094;-77
2023/11/21 06:42:22;;;;;;;11.35;7.90;;;;;;;2.87;100.00;91750.41;4956631;29;20039;-77
2023/11/21 06:44:48;;;;;;;12.55;8.05;;;;;;;2.84;100.00;91752.75;4956530;29;20097;-77
2023/11/21 06:47:14;;;;;;;10.40;7.25;;;;;;;2.96;100.00;91758.44;4939760;29;20491;-77
2023/11/21 06:49:42;;;;;;;12.65;8.45;;;;;;;2.97;100.00;91762.56;4956862;29;20110;-78
2023/11/21 06:52:08;;;;;;;11.20;7.95;;;;;;;2.92;100.00;91768.53;4954503;29;20035;-77
2023/11/21 06:54:34;;;;;;;11.40;7.63;;;;;;;2.89;100.00;91766.47;4953165;29;20054;-77
2023/11/21 06:57:00;;;;;;;9.27;7.20;;;;;;;2.86;100.00;91766.19;4950923;28;20035;-77
2023/11/21 06:59:28;;;;;;;11.38;7.28;;;;;;;2.90;100.00;91752.50;4951250;29;20032;-76
2023/11/21 07:01:54;;;;;;;9.55;6.60;;;;;;;2.96;100.00;91755.88;4950872;29;20130;-78
2023/11/21 07:04:20;;;;;;;9.30;6.60;;;;;;;2.95;100.00;91754.31;4951876;29;20472;-76
2023/11/21 07:06:45;;;;;;;8.38;6.18;;;;;;;3.03;100.00;91758.97;4950863;28;20047;-78
2023/11/21 07:09:11;;;;;;;8.60;5.32;;;;;;;3.08;100.00;91751.22;4955843;29;20031;-78
2023/11/21 07:11:40;;;;;;;6.97;3.75;;;;;;;3.15;100.00;91747.59;4954594;29;20040;-78
2023/11/21 07:14:07;;;;;;;4.95;2.30;;;;;;;3.18;100.00;91747.88;4954060;29;20032;-78
2023/11/21 07:16:37;;;;;;;3.92;2.00;;;;;;;3.24;100.00;91746.06;4937096;29;20123;-75
2023/11/21 07:19:09;;;;;;;3.42;1.70;;;;;;;3.33;100.00;91749.66;4954878;29;20039;-78
2023/11/21 07:21:35;;;;;;;7.93;4.78;;;;;;;3.53;100.00;91749.69;4954419;29;20515;-76
2023/11/21 07:24:03;;;;;;;7.45;5.32;;;;;;;3.90;100.00;91748.56;4954129;29;20491;-78
2023/11/21 07:26:29;;;;;;;5.22;3.40;;;;;;;4.53;100.00;91747.31;4952446;29;20491;-77
2023/11/21 07:28:56;;;;;;;2.83;1.80;;;;;;;5.41;100.00;91737.94;4933767;29;20111;-76
2023/11/21 07:31:24;;;;;;;6.15;3.17;;;;;;;7.05;100.00;91736.16;4928125;29;20079;-77
2023/11/21 07:33:51;;;;;;;1.98;1.30;;;;;;;8.64;100.00;91736.09;4931815;29;20047;-77
2023/11/21 07:36:23;;;;;;;2.00;1.45;;;;;;;10.29;97.22;91739.09;4932975;29;20036;-76
2023/11/21 07:38:49;;;;;;;;;;;;;;;10.93;100.00;91736.84;4932752;29;20035;-77
2023/11/21 07:41:17;;;;;;;8.63;5.97;;;;;;;11.48;100.00;91732.09;4932267;29;19918;-77
2023/11/21 07:43:44;;;;;;;7.28;4.80;;;;;;;12.24;92.60;91734.88;4931830;29;20500;-76
2023/11/21 07:46:12;;;;;;;6.45;4.80;;;;;;;12.78;94.57;91741.47;4932623;29;20074;-77
2023/11/21 07:48:46;;;;;;;6.20;3.38;;;;;;;13.65;75.33;91739.06;4932820;29;20519;-77
2023/11/21 07:51:13;;;;;;;7.07;5.18;;;;;;;13.79;77.26;91732.75;4932698;29;20044;-77
2023/11/21 07:53:39;;;;;;;5.22;3.35;;;;;;;14.94;71.48;91730.06;4931917;29;20051;-77
2023/11/21 07:56:08;;;;;;;3.55;2.15;;;;;;;15.75;56.92;91724.09;4933110;29;20043;-76
2023/11/21 07:58:37;;;;;;;1.75;1.20;;;;;;;16.65;49.66;91721.84;4932683;29;20139;-78
2023/11/21 08:01:03;;;;;;;2.58;1.50;;;;;;;17.42;45.80;91731.13;4933504;29;20054;-77
2023/11/21 08:03:32;;;;;;;1.27;0.93;;;;;;;18.62;37.60;91717.06;4934906;29;20500;-76
2023/11/21 08:05:59;;;;;;;0.60;0.60;;;;;;;18.65;37.99;91719.03;4934765;29;20130;-78
2023/11/21 08:08:25;;;;;;;0.70;0.70;;;;;;;19.50;35.73;91719.53;4936299;29;20039;-77
2023/11/21 08:10:57;;;;;;;3.78;2.05;;;;;;;19.82;34.77;91707.81;4939012;29;20054;-78
2023/11/21 08:13:24;;;;;;;2.90;1.63;;;;;;;20.08;33.54;91709.59;4939536;29;20043;-78
2023/11/21 08:15:49;;;;;;;3.85;2.50;;;;;;;20.41;36.34;91706.16;4938555;29;20508;-78
2023/11/21 08:18:17;;;;;;;5.68;3.60;;;;;;;19.74;41.85;91713.03;4938439;29;20059;-76
2023/11/21 08:20:43;;;;;;;6.72;4.10;;;;;;;20.18;46.22;91704.41;4940346;29;20490;-77
2023/11/21 08:23:08;;;;;;;5.03;3.38;;;;;;;19.50;41.57;91702.88;4938940;29;20063;-76
2023/11/21 08:25:34;;;;;;;6.82;3.30;;;;;;;20.39;38.22;91705.75;4937943;29;20505;-77
2023/11/21 08:28:01;;;;;;;5.03;2.53;;;;;;;20.68;37.05;91703.38;4937688;29;20051;-78
2023/11/21 08:30:29;;;;;;;2.95;1.83;;;;;;;21.56;33.87;91702.47;4937550;29;20066;-77
2023/11/21 08:32:58;;;;;;;4.60;3.00;;;;;;;20.02;35.95;91711.84;4935968;29;20123;-77
2023/11/21 08:35:24;;;;;;;3.85;2.50;;;;;;;19.16;37.42;91710.72;4936833;29;20036;-77
2023/11/21 08:37:53;;;;;;;3.80;2.58;;;;;;;17.65;41.16;91700.22;4935704;29;20091;-77
2023/11/21 08:40:20;;;;;;;5.40;3.22;;;;;;;17.24;46.49;91710.34;4935384;29;20115;-77
2023/11/21 08:42:47;;;;;;;5.40;3.47;;;;;;;16.42;49.57;91706.59;4936215;29;20117;-77
2023/11/21 08:45:14;;;;;;;4.72;2.90;;;;;;;16.39;49.54;91706.50;4937325;29;20036;-78
2023/11/21 08:47:40;;;;;;;3.17;1.80;;;;;;;16.99;43.86;91719.63;4939052;29;20039;-78
2023/11/21 08:50:07;;;;;;;3.70;2.47;;;;;;;16.70;43.13;91715.53;4938479;29;20082;-77
2023/11/21 08:52:34;;;;;;;2.60;1.70;;;;;;;15.22;41.93;91707.53;4937660;29;20467;-78
2023/11/21 08:55:02;;;;;;;1.88;1.30;;;;;;;15.84;42.24;91713.41;4938528;29;20036;-78
2023/11/21 08:57:28;;;;;;;1.20;0.80;;;;;;;16.51;38.64;91705.66;4938106;29;20094;-79
2023/11/21 08:59:55;;;;;;;0.57;0.57;;;;;;;17.21;38.37;91705.75;4938213;29;20033;-79
2023/11/21 09:02:23;;;;;;;0.50;0.50;;;;;;;17.65;34.60;91696.78;4938731;29;20064;-79
2023/11/21 09:04:49;;;;;;;0.60;0.60;;;;;;;17.96;34.63;91698.56;4938422;29;20399;-79
2023/11/21 09:07:15;;;;;;;0.47;0.47;;;;;;;18.48;33.87;91702.47;4939370;29;20040;-78
2023/11/21 09:09:41;;;;;;;3.65;2.10;;;;;;;16.96;38.48;91705.22;4939740;29;20039;-79
2023/11/21 09:12:07;;;;;;;1.73;1.30;;;;;;;17.18;37.04;91706.44;4937855;29;20035;-79
2023/11/21 09:14:33;;;;;;;0.80;0.75;;;;;;;16.92;35.45;91699.06;4938196;29;20079;-79
2023/11/21 09:16:59;;;;;;;0.73;0.70;;;;;;;16.46;31.36;91693.47;4937687;29;20341;-78
2023/11/21 09:19:24;;;;;;;0.60;0.50;;;;;;;17.09;35.15;91692.66;4937224;29;20102;-78
2023/11/21 09:21:50;;;;;;;0.57;0.57;;;;;;;17.10;32.63;91702.09;4938495;29;20043;-77
2023/11/21 09:24:16;;;;;;;0.77;0.70;;;;;;;16.41;35.11;91685.78;4937856;29;20067;-79
2023/11/21 09:26:41;;;;;;;0.88;0.80;;;;;;;17.19;34.40;91684.16;4938311;29;20488;-78
2023/11/21 09:29:08;;;;;;;2.30;1.40;;;;;;;17.19;36.47;91686.81;4935798;29;20031;-78
2023/11/21 09:31:33;;;;;;;0.70;0.68;;;;;;;17.81;34.76;91686.13;4936985;29;20134;-79
2023/11/21 09:33:59;;;;;;;1.05;0.90;;;;;;;17.98;32.89;91677.03;4938238;29;20070;-79
2023/11/21 09:36:27;;;;;;;0.63;0.63;;;;;;;17.02;32.63;91674.75;4937678;29;20142;-78
2023/11/21 09:38:55;;;;;;;0.82;0.63;;;;;;;16.83;35.35;91678.13;4937905;29;20044;-78
2023/11/21 09:41:34;;;;;;;0.63;0.63;;;;;;;16.85;32.37;91670.59;4936156;29;20043;-79
2023/11/21 09:44:07;;;;;;;0.68;0.68;;;;;;;17.36;34.10;91663.72;4937536;29;20039;-78
2023/11/21 09:46:33;;;;;;;0.73;0.65;;;;;;;16.98;34.48;91670.50;4937319;29;20047;-78
2023/11/21 09:49:04;;;;;;;0.50;0.45;;;;;;;17.41;31.83;91666.09;4936861;29;20028;-78
2023/11/21 09:51:33;;;;;;;0.70;0.70;;;;;;;17.54;32.27;91664.84;4936310;29;20063;-77
2023/11/21 09:54:06;;;;;;;0.60;0.60;;;;;;;17.91;32.24;91664.41;4938380;29;20350;-78
2023/11/21 09:56:32;;;;;;;0.70;0.65;;;;;;;18.20;30.81;91656.97;4938097;29;20052;-78
2023/11/21 09:59:03;;;;;;;0.50;0.50;;;;;;;17.96;30.74;91666.00;4937594;29;20522;-78
2023/11/21 10:01:30;;;;;;;0.43;0.43;;;;;;;18.15;30.10;91644.00;4936741;29;20044;-78
2023/11/21 10:03:56;;;;;;;1.50;0.95;;;;;;;17.57;32.77;91656.22;4936388;29;20040;-78
2023/11/21 10:06:25;;;;;;;1.33;0.80;;;;;;;16.99;32.25;91656.16;4938047;29;20067;-79
2023/11/21 10:08:51;;;;;;;0.60;0.60;;;;;;;17.26;32.05;91649.16;4937197;29;20036;-77
2023/11/21 10:11:19;;;;;;;0.60;0.60;;;;;;;17.27;31.88;91646.19;4939456;29;20039;-79
2023/11/21 10:13:46;;;;;;;0.65;0.65;;;;;;;17.83;30.69;91644.22;4938185;29;20039;-78
2023/11/21 10:16:17;;;;;;;0.60;0.60;;;;;;;17.71;31.12;91644.34;4938820;29;20516;-79
2023/11/21 10:18:45;;;;;;;0.60;0.60;;;;;;;17.43;30.75;91634.78;4939579;29;20039;-78
2023/11/21 10:21:11;;;;;;;1.33;0.90;;;;;;;16.84;31.89;91624.16;4937968;29;20086;-79
2023/11/21 10:23:37;;;;;;;1.40;0.90;;;;;;;16.95;32.03;91634.16;4937723;29;20404;-79
2023/11/21 10:26:04;;;;;;;0.77;0.70;;;;;;;17.14;31.81;91626.28;4936463;29;20138;-79
2023/11/21 10:28:30;;;;;;;1.02;0.85;;;;;;;16.85;30.74;91628.31;4938660;29;20055;-78
2023/11/21 10:30:56;;;;;;;1.00;0.80;;;;;;;16.71;33.55;91632.50;4936061;29;20056;-78
2023/11/21 10:33:28;;;;;;;0.68;0.60;;;;;;;16.58;29.91;91634.50;4937810;29;20054;-78
2023/11/21 10:35:54;;;;;;;0.35;0.35;;;;;;;16.73;30.10;91615.19;4939547;29;20261;-79
2023/11/21 10:38:24;;;;;;;0.43;0.43;;;;;;;16.77;31.61;91629.22;4939061;29;20024;-78
2023/11/21 10:40:50;;;;;;;0.50;0.50;;;;;;;17.13;31.35;91632.66;4938920;29;20051;-78
2023/11/21 10:43:18;;;;;;;0.93;0.80;;;;;;;17.48;30.80;91626.56;4940396;29;20110;-79
2023/11/21 10:45:44;;;;;;;0.70;0.70;;;;;;;17.59;30.54;91627.53;4937932;29;20043;-77
2023/11/21 10:48:15;;;;;;;0.90;0.60;;;;;;;17.65;29.29;91623.47;4939546;29;20051;-78
2023/11/21 10:50:41;;;;;;;0.70;0.70;;;;;;;17.86;29.14;91617.06;4940032;29;20039;-79
2023/11/21 10:53:06;;;;;;;1.17;0.95;;;;;;;18.03;30.78;91610.53;4939394;29;20046;-77
2023/11/21 10:55:34;;;;;;;0.55;0.50;;;;;;;18.12;30.11;91612.94;4939028;29;20500;-77
2023/11/21 10:58:05;;;;;;;0.88;0.70;;;;;;;18.28;29.23;91600.34;4939222;29;20362;-79
2023/11/21 11:00:32;;;;;;;0.85;0.75;;;;;;;17.45;31.15;91603.44;4938764;29;20040;-77
2023/11/21 11:02:59;;;;;;;0.63;0.63;;;;;;;17.60;30.82;91615.81;4939673;29;20036;-79
2023/11/21 11:05:29;;;;;;;0.77;0.60;;;;;;;17.53;28.50;91609.63;4939441;29;20543;-78
2023/11/21 11:08:07;;;;;;;0.60;0.60;;;;;;;17.86;29.76;91601.19;4938889;29;20035;-79
2023/11/21 11:10:34;;;;;;;0.40;0.40;;;;;;;18.01;28.87;91597.66;4939877;29;20301;-80
2023/11/21 11:12:59;;;;;;;0.50;0.50;;;;;;;18.43;28.59;91602.09;4939203;29;20032;-79
2023/11/21 11:15:26;;;;;;;1.30;0.70;;;;;;;18.70;29.20;91604.75;4938299;29;20047;-79
2023/11/21 11:17:59;;;;;;;0.90;0.90;;;;;;;17.95;28.29;91603.59;4937176;29;20042;-79
2023/11/21 11:20:37;;;;;;;0.60;0.60;;;;;;;16.28;29.37;91602.47;4938745;29;20075;-79
2023/11/21 11:23:38;;;;;;;0.93;0.80;;;;;;;16.36;30.84;91604.94;4939699;29;20411;-79
2023/11/21 11:26:37;;;;;;;0.65;0.65;;;;;;;15.50;30.88;91597.56;4939231;29;20036;-78